Time;durP1;ratioP1;P1;durP2;ratioP2;P2;SDS_P1;SDS_P2;PMS_P1;PMS_P2;Temp;Humidity;BMP_temperature;BMP_pressure;BME280_temperature;BME280_humidity;BME280_pressure;Samples;Min_cycle;Max_cycle;Signal;HPM_P1;HPM_P2
2024/01/06 00:02:15;;;;;;;19.83;10.02;;;5.70;99.90;;;;;;5067875;28;20043;-69
2024/01/06 00:04:41;;;;;;;17.98;8.07;;;5.70;99.90;;;;;;5077258;28;20052;-69
2024/01/06 00:07:07;;;;;;;20.23;8.55;;;5.70;99.90;;;;;;5085602;28;20047;-69
2024/01/06 00:09:32;;;;;;;17.95;6.90;;;5.70;99.90;;;;;;5076051;28;20131;-69
2024/01/06 00:11:58;;;;;;;20.48;9.15;;;5.70;99.90;;;;;;5077750;28;20029;-69
2024/01/06 00:14:24;;;;;;;22.45;9.27;;;5.70;99.90;;;;;;5077818;28;20409;-69
2024/01/06 00:16:49;;;;;;;24.05;9.45;;;5.80;99.90;;;;;;5077304;28;20029;-69
2024/01/06 00:19:17;;;;;;;23.17;9.77;;;5.80;99.90;;;;;;5078368;28;20070;-69
2024/01/06 00:21:43;;;;;;;22.25;10.23;;;5.80;99.90;;;;;;5076035;28;20553;-69
2024/01/06 00:24:08;;;;;;;18.83;8.15;;;5.80;99.90;;;;;;5077338;28;20032;-69
2024/01/06 00:26:34;;;;;;;22.02;9.63;;;5.80;99.90;;;;;;5076132;28;20547;-69
2024/01/06 00:28:59;;;;;;;19.83;8.75;;;5.70;99.90;;;;;;5068108;28;20021;-69
2024/01/06 00:31:25;;;;;;;21.58;9.63;;;5.80;99.90;;;;;;5067262;28;20031;-69
2024/01/06 00:33:51;;;;;;;20.38;8.93;;;5.80;99.90;;;;;;5072250;28;20104;-69
2024/01/06 00:36:16;;;;;;;21.48;9.63;;;5.80;99.90;;;;;;5069971;28;20123;-68
2024/01/06 00:38:42;;;;;;;21.42;9.70;;;5.80;99.90;;;;;;5077508;28;20031;-69
2024/01/06 00:41:09;;;;;;;20.60;9.07;;;5.80;99.90;;;;;;5072275;28;20052;-68
2024/01/06 00:43:35;;;;;;;21.23;9.20;;;5.80;99.90;;;;;;5076779;28;20421;-70
2024/01/06 00:46:00;;;;;;;15.70;6.43;;;5.90;99.90;;;;;;5078370;28;20034;-69
2024/01/06 00:48:26;;;;;;;21.80;10.35;;;5.80;99.90;;;;;;5078151;28;20028;-68
2024/01/06 00:50:52;;;;;;;23.27;9.43;;;5.80;99.90;;;;;;5078307;28;20039;-69
2024/01/06 00:53:17;;;;;;;25.98;10.80;;;5.70;99.90;;;;;;5077686;28;20040;-68
2024/01/06 00:55:43;;;;;;;22.13;9.40;;;5.70;99.90;;;;;;5077192;28;20025;-68
2024/01/06 00:58:08;;;;;;;23.23;9.20;;;5.70;99.90;;;;;;5076930;28;20380;-68
2024/01/06 01:00:34;;;;;;;24.08;10.23;;;5.80;99.90;;;;;;5078393;28;20057;-68
2024/01/06 01:03:00;;;;;;;22.77;10.20;;;5.80;99.90;;;;;;5075517;28;20024;-69
2024/01/06 01:05:25;;;;;;;21.88;9.32;;;5.80;99.90;;;;;;5075215;28;20029;-68
2024/01/06 01:07:51;;;;;;;24.52;10.55;;;5.80;99.90;;;;;;5073268;28;20074;-68
2024/01/06 01:10:17;;;;;;;23.02;10.25;;;5.80;99.90;;;;;;5074235;28;20387;-69
2024/01/06 01:12:42;;;;;;;21.80;9.77;;;5.70;99.90;;;;;;5073124;28;20097;-69
2024/01/06 01:15:08;;;;;;;22.40;8.82;;;5.70;99.90;;;;;;5071789;28;20028;-69
2024/01/06 01:17:34;;;;;;;22.38;9.95;;;5.70;99.90;;;;;;5077230;28;20074;-69
2024/01/06 01:19:59;;;;;;;23.83;9.55;;;5.70;99.90;;;;;;5073044;28;20028;-69
2024/01/06 01:22:25;;;;;;;23.70;10.68;;;5.70;99.90;;;;;;5075224;28;20415;-69
2024/01/06 01:24:50;;;;;;;23.52;9.88;;;5.70;99.90;;;;;;5073201;28;20221;-69
2024/01/06 01:27:16;;;;;;;22.83;10.13;;;5.70;99.90;;;;;;5074800;28;20605;-69
2024/01/06 01:29:42;;;;;;;22.60;10.25;;;5.70;99.90;;;;;;5073659;28;20024;-69
2024/01/06 01:32:07;;;;;;;22.90;9.95;;;5.70;99.90;;;;;;5071973;28;20025;-69
2024/01/06 01:34:34;;;;;;;25.33;10.05;;;5.70;99.90;;;;;;5075169;28;20024;-69
2024/01/06 01:37:00;;;;;;;22.45;10.23;;;5.80;99.90;;;;;;5073171;28;20024;-69
2024/01/06 01:39:25;;;;;;;22.27;9.68;;;5.70;99.90;;;;;;5075536;28;20115;-68
2024/01/06 01:41:51;;;;;;;21.42;8.48;;;5.70;99.90;;;;;;5074770;28;20155;-68
2024/01/06 01:44:17;;;;;;;22.10;9.25;;;;;;;;;;5075737;28;20043;-69
2024/01/06 01:46:43;;;;;;;20.27;9.02;;;5.70;99.90;;;;;;5074335;28;20029;-68
2024/01/06 01:49:08;;;;;;;23.85;9.75;;;5.90;99.90;;;;;;5073126;28;20490;-68
2024/01/06 01:51:35;;;;;;;21.40;8.88;;;5.70;99.90;;;;;;5075863;28;20399;-68
2024/01/06 01:54:05;;;;;;;22.65;9.57;;;5.70;99.90;;;;;;5074686;28;20513;-68
2024/01/06 01:56:34;;;;;;;23.20;9.45;;;5.70;99.90;;;;;;5087892;28;20020;-68
2024/01/06 01:59:20;;;;;;;23.20;9.75;;;5.70;99.90;;;;;;5072833;28;20028;-68
2024/01/06 02:01:46;;;;;;;25.67;9.70;;;5.80;99.90;;;;;;5069900;28;20054;-68
2024/01/06 02:04:12;;;;;;;24.42;10.02;;;5.70;99.90;;;;;;5073340;28;20028;-68
2024/01/06 02:06:38;;;;;;;23.60;9.15;;;5.70;99.90;;;;;;5076794;28;20024;-68
2024/01/06 02:09:03;;;;;;;22.48;9.82;;;5.70;99.90;;;;;;5073552;28;20056;-68
2024/01/06 02:11:29;;;;;;;24.88;10.32;;;5.70;99.90;;;;;;5075911;28;20545;-68
2024/01/06 02:13:56;;;;;;;27.30;10.35;;;5.70;99.90;;;;;;5076407;28;20093;-68
2024/01/06 02:16:21;;;;;;;21.15;8.95;;;5.70;99.90;;;;;;5078317;28;20463;-68
2024/01/06 02:18:47;;;;;;;24.17;10.73;;;5.70;99.90;;;;;;5075124;28;20070;-68
2024/01/06 02:21:14;;;;;;;29.25;10.88;;;5.70;99.90;;;;;;5076450;28;20553;-68
2024/01/06 02:23:39;;;;;;;29.25;11.65;;;5.60;99.90;;;;;;5075194;28;20577;-68
2024/01/06 02:26:05;;;;;;;20.65;8.88;;;5.60;99.90;;;;;;5068843;28;20024;-68
2024/01/06 02:28:31;;;;;;;25.83;9.88;;;5.60;99.90;;;;;;5070193;28;20024;-68
2024/01/06 02:30:56;;;;;;;29.05;10.90;;;5.60;99.90;;;;;;5067904;28;20504;-68
2024/01/06 02:33:24;;;;;;;26.75;11.07;;;5.60;99.90;;;;;;5071136;28;20056;-68
2024/01/06 02:35:49;;;;;;;25.98;10.77;;;5.60;99.90;;;;;;5088329;28;20132;-68
2024/01/06 02:38:15;;;;;;;27.15;10.50;;;5.60;99.90;;;;;;5069279;28;20481;-68
2024/01/06 02:40:42;;;;;;;25.85;11.23;;;5.60;99.90;;;;;;5070489;28;20016;-68
2024/01/06 02:43:08;;;;;;;27.67;10.55;;;5.60;99.90;;;;;;5070978;28;20021;-68
2024/01/06 02:45:34;;;;;;;26.30;11.25;;;5.60;99.90;;;;;;5069737;28;20028;-68
2024/01/06 02:47:59;;;;;;;25.92;10.70;;;5.60;99.90;;;;;;5072456;28;20028;-68
2024/01/06 02:50:25;;;;;;;23.60;10.23;;;5.60;99.90;;;;;;5071872;28;20023;-68
2024/01/06 02:52:50;;;;;;;26.85;10.52;;;5.60;99.90;;;;;;5072612;28;20016;-68
2024/01/06 02:55:16;;;;;;;27.42;10.68;;;5.50;99.90;;;;;;5072295;28;20029;-68
2024/01/06 02:57:42;;;;;;;26.85;10.48;;;5.50;99.90;;;;;;5074170;28;20543;-68
2024/01/06 03:00:08;;;;;;;29.00;10.68;;;5.50;99.90;;;;;;5070472;28;20190;-68
2024/01/06 03:02:35;;;;;;;26.58;10.35;;;5.50;99.90;;;;;;5070813;28;20056;-68
2024/01/06 03:05:01;;;;;;;25.70;10.52;;;5.50;99.90;;;;;;5070970;28;20052;-68
2024/01/06 03:07:27;;;;;;;24.02;9.88;;;5.40;99.90;;;;;;5070777;28;20064;-68
2024/01/06 03:09:52;;;;;;;25.92;10.23;;;5.50;99.90;;;;;;5070472;28;20020;-69
2024/01/06 03:12:18;;;;;;;24.05;9.82;;;5.50;99.90;;;;;;5088432;28;20027;-68
2024/01/06 03:14:44;;;;;;;21.42;9.32;;;5.50;99.90;;;;;;5072909;28;20112;-68
2024/01/06 03:17:12;;;;;;;22.42;9.32;;;5.60;99.90;;;;;;5072667;28;20111;-68
2024/01/06 03:19:38;;;;;;;23.15;9.23;;;5.50;99.90;;;;;;5074502;28;20021;-68
2024/01/06 03:22:04;;;;;;;22.48;9.38;;;5.50;99.90;;;;;;5072839;28;20085;-68
2024/01/06 03:24:31;;;;;;;22.58;9.77;;;5.50;99.90;;;;;;5072244;28;20021;-68
2024/01/06 03:26:56;;;;;;;24.65;10.05;;;5.50;99.90;;;;;;5072029;28;20455;-68
2024/01/06 03:29:22;;;;;;;21.85;8.55;;;5.50;99.90;;;;;;5073400;28;20028;-68
2024/01/06 03:31:48;;;;;;;23.17;8.77;;;5.50;99.90;;;;;;5071478;28;20027;-68
2024/01/06 03:34:14;;;;;;;22.30;9.02;;;5.50;99.90;;;;;;5073755;28;20054;-68
2024/01/06 03:36:40;;;;;;;22.77;9.07;;;5.50;99.90;;;;;;5075506;28;20021;-68
2024/01/06 03:39:06;;;;;;;23.70;9.43;;;5.50;99.90;;;;;;5070889;28;20105;-68
2024/01/06 03:41:32;;;;;;;22.23;9.32;;;5.50;99.90;;;;;;5070115;28;20028;-68
2024/01/06 03:43:58;;;;;;;27.40;10.55;;;5.50;99.90;;;;;;5069114;28;20025;-68
2024/01/06 03:46:23;;;;;;;27.55;10.77;;;5.50;99.90;;;;;;5069989;28;20028;-68
2024/01/06 03:48:49;;;;;;;27.73;10.70;;;5.50;99.90;;;;;;5070460;28;20025;-68
2024/01/06 03:51:15;;;;;;;29.98;11.93;;;5.50;99.90;;;;;;5071787;28;20479;-68
2024/01/06 03:53:41;;;;;;;32.75;11.65;;;5.40;99.90;;;;;;5070849;28;20017;-68
2024/01/06 03:56:06;;;;;;;32.60;11.90;;;5.50;99.90;;;;;;5071416;28;20029;-67
2024/01/06 03:58:32;;;;;;;36.13;13.30;;;5.60;99.90;;;;;;5071475;28;20065;-68
2024/01/06 04:00:58;;;;;;;31.35;10.73;;;5.40;99.90;;;;;;5070893;28;20043;-68
2024/01/06 04:03:23;;;;;;;19.63;8.60;;;5.50;99.90;;;;;;5075031;28;20012;-68
2024/01/06 04:05:49;;;;;;;28.13;9.88;;;5.40;99.90;;;;;;5071676;28;20029;-68
2024/01/06 04:08:15;;;;;;;32.88;10.57;;;5.40;99.90;;;;;;5072966;28;20273;-67
2024/01/06 04:10:41;;;;;;;26.08;9.45;;;5.30;99.90;;;;;;5071250;28;20031;-67
2024/01/06 04:13:07;;;;;;;31.95;11.63;;;5.20;99.90;;;;;;5077446;28;20055;-68
2024/01/06 04:15:33;;;;;;;32.38;10.85;;;5.20;99.90;;;;;;5076782;28;20466;-67
2024/01/06 04:18:03;;;;;;;30.10;10.38;;;5.10;99.90;;;;;;5075463;28;20035;-67
2024/01/06 04:20:29;;;;;;;32.13;10.45;;;5.10;99.90;;;;;;5077961;28;20021;-68
2024/01/06 04:22:54;;;;;;;36.70;12.48;;;5.10;99.90;;;;;;5077433;28;20040;-68
2024/01/06 04:25:21;;;;;;;26.10;9.60;;;5.10;99.90;;;;;;5076759;28;20089;-68
2024/01/06 04:27:48;;;;;;;33.42;10.95;;;5.10;99.90;;;;;;5076243;28;20359;-68
2024/01/06 04:30:14;;;;;;;35.60;12.55;;;5.10;99.90;;;;;;5077471;28;20038;-68
2024/01/06 04:32:40;;;;;;;36.58;14.25;;;5.10;99.90;;;;;;5076331;28;20466;-68
2024/01/06 04:35:06;;;;;;;32.60;11.65;;;5.00;99.90;;;;;;5079231;28;20029;-67
2024/01/06 04:37:31;;;;;;;32.10;10.02;;;5.00;99.90;;;;;;5078805;28;20111;-67
2024/01/06 04:39:57;;;;;;;35.72;11.45;;;4.90;99.90;;;;;;5079017;28;20398;-68
2024/01/06 04:42:23;;;;;;;26.48;9.23;;;4.90;99.90;;;;;;5079744;28;20103;-68
2024/01/06 04:44:50;;;;;;;28.73;9.73;;;4.90;99.90;;;;;;5078688;28;20107;-67
2024/01/06 04:47:15;;;;;;;28.85;9.55;;;4.90;99.90;;;;;;5075351;28;20012;-68
2024/01/06 04:49:41;;;;;;;34.72;11.15;;;4.80;99.90;;;;;;5079519;28;20016;-68
2024/01/06 04:52:07;;;;;;;30.55;9.98;;;4.70;99.90;;;;;;5080642;28;20109;-68
2024/01/06 04:54:32;;;;;;;31.20;9.27;;;4.80;99.90;;;;;;5074650;28;20028;-68
2024/01/06 04:56:58;;;;;;;32.50;11.50;;;4.80;99.90;;;;;;5073042;28;20562;-67
2024/01/06 04:59:24;;;;;;;21.23;8.20;;;4.70;99.90;;;;;;5073842;28;20380;-68
2024/01/06 05:01:51;;;;;;;38.70;11.35;;;4.70;99.90;;;;;;5071999;28;20056;-68
2024/01/06 05:04:17;;;;;;;38.80;13.27;;;4.80;99.90;;;;;;5071243;28;20482;-68
2024/01/06 05:06:43;;;;;;;26.63;10.98;;;4.80;99.90;;;;;;5071953;28;20024;-68
2024/01/06 05:09:08;;;;;;;35.22;11.77;;;4.70;99.90;;;;;;5071831;28;20032;-68
2024/01/06 05:11:34;;;;;;;37.95;11.93;;;4.60;99.90;;;;;;5074015;28;20020;-68
2024/01/06 05:14:00;;;;;;;28.13;8.80;;;4.60;99.90;;;;;;5074273;28;20032;-68
2024/01/06 05:16:26;;;;;;;34.50;10.95;;;4.60;99.90;;;;;;5074165;28;20622;-69
2024/01/06 05:18:51;;;;;;;38.08;10.85;;;4.60;99.90;;;;;;5074581;28;20052;-69
2024/01/06 05:21:17;;;;;;;33.13;11.63;;;4.60;99.90;;;;;;5073861;28;20031;-69
2024/01/06 05:23:42;;;;;;;32.38;9.90;;;4.60;99.90;;;;;;5076149;28;20050;-69
2024/01/06 05:26:09;;;;;;;37.33;12.13;;;4.60;99.90;;;;;;5074962;28;20020;-69
2024/01/06 05:28:35;;;;;;;30.90;10.88;;;4.60;99.90;;;;;;5076604;28;20009;-69
2024/01/06 05:31:00;;;;;;;31.42;11.63;;;4.60;99.90;;;;;;5074677;28;20024;-69
2024/01/06 05:33:26;;;;;;;32.00;10.60;;;4.70;99.90;;;;;;5075434;28;20107;-69
2024/01/06 05:35:51;;;;;;;34.20;11.30;;;4.50;99.90;;;;;;5075423;28;20445;-69
2024/01/06 05:38:17;;;;;;;31.38;10.15;;;4.50;99.90;;;;;;5075656;28;20056;-69
2024/01/06 05:40:42;;;;;;;32.08;11.18;;;4.50;99.90;;;;;;5077392;28;20390;-69
2024/01/06 05:43:08;;;;;;;18.38;7.38;;;4.50;99.90;;;;;;5076486;28;20032;-69
2024/01/06 05:45:34;;;;;;;36.53;10.57;;;4.50;99.90;;;;;;5077875;28;20028;-69
2024/01/06 05:47:59;;;;;;;27.17;8.68;;;4.50;99.90;;;;;;5077002;28;20082;-68
2024/01/06 05:50:25;;;;;;;27.63;9.07;;;4.50;99.90;;;;;;5077204;28;20021;-69
2024/01/06 05:52:51;;;;;;;33.33;11.85;;;4.50;99.90;;;;;;5078023;28;20020;-69
2024/01/06 05:55:19;;;;;;;34.20;10.75;;;4.50;99.90;;;;;;5072221;28;20086;-69
2024/01/06 05:57:44;;;;;;;34.85;11.77;;;4.50;99.90;;;;;;5076700;28;20083;-69
2024/01/06 06:00:13;;;;;;;35.65;11.63;;;4.50;99.90;;;;;;5076996;28;20546;-69
2024/01/06 06:02:39;;;;;;;30.50;11.45;;;4.50;99.90;;;;;;5072630;28;20103;-68
2024/01/06 06:05:05;;;;;;;36.95;10.80;;;4.50;99.90;;;;;;5077295;28;20546;-69
2024/01/06 06:07:31;;;;;;;32.95;11.55;;;4.50;99.90;;;;;;5079181;28;20407;-69
2024/01/06 06:09:56;;;;;;;34.90;10.95;;;6.80;99.90;;;;;;5072733;28;20296;-68
2024/01/06 06:12:22;;;;;;;33.47;11.60;;;4.50;99.90;;;;;;5086345;28;20464;-69
2024/01/06 06:14:47;;;;;;;37.65;11.52;;;4.40;99.90;;;;;;5072316;28;20025;-68
2024/01/06 06:17:13;;;;;;;34.30;12.00;;;4.40;99.90;;;;;;5072055;28;20426;-69
2024/01/06 06:19:39;;;;;;;31.65;11.10;;;4.40;99.90;;;;;;5072142;28;20133;-69
2024/01/06 06:22:04;;;;;;;37.58;11.50;;;4.40;99.90;;;;;;5071719;28;20489;-69
2024/01/06 06:24:31;;;;;;;38.55;12.70;;;4.30;99.90;;;;;;5072307;28;20024;-68
2024/01/06 06:26:56;;;;;;;33.15;11.18;;;4.40;99.90;;;;;;5074163;28;20570;-68
2024/01/06 06:29:22;;;;;;;33.13;9.55;;;4.30;99.90;;;;;;5072793;28;20025;-68
2024/01/06 06:31:48;;;;;;;34.28;11.25;;;4.40;99.90;;;;;;5071957;28;20024;-68
2024/01/06 06:34:14;;;;;;;33.33;10.85;;;4.40;99.90;;;;;;5072464;28;20024;-68
2024/01/06 06:36:39;;;;;;;30.77;10.00;;;4.40;99.90;;;;;;5073044;28;20373;-68
2024/01/06 06:39:05;;;;;;;29.92;9.02;;;4.50;99.90;;;;;;5072677;28;20043;-68
2024/01/06 06:41:31;;;;;;;32.67;9.93;;;4.50;99.90;;;;;;5071944;28;20444;-68
2024/01/06 06:43:57;;;;;;;27.85;8.30;;;4.50;99.90;;;;;;5076885;28;20234;-68
2024/01/06 06:46:23;;;;;;;29.10;8.90;;;4.50;99.90;;;;;;5073610;28;20024;-68
2024/01/06 06:48:50;;;;;;;29.77;9.18;;;4.50;99.90;;;;;;5075621;28;20077;-67
2024/01/06 06:51:16;;;;;;;27.02;9.60;;;4.50;99.90;;;;;;5075275;28;20069;-68
2024/01/06 06:53:41;;;;;;;25.38;8.88;;;4.50;99.90;;;;;;5072813;28;20435;-67
2024/01/06 06:56:07;;;;;;;28.67;9.13;;;4.50;99.90;;;;;;5075134;28;20598;-67
2024/01/06 06:58:33;;;;;;;26.17;9.23;;;4.40;99.90;;;;;;5074930;28;20352;-68
2024/01/06 07:00:58;;;;;;;27.60;9.23;;;4.30;99.90;;;;;;5074581;28;20044;-67
2024/01/06 07:03:24;;;;;;;23.80;7.18;;;4.40;99.90;;;;;;5072864;28;20154;-67
2024/01/06 07:05:50;;;;;;;30.02;10.05;;;4.40;99.90;;;;;;5073963;28;20044;-68
2024/01/06 07:08:16;;;;;;;31.38;10.35;;;4.30;99.90;;;;;;5075211;28;20381;-68
2024/01/06 07:10:41;;;;;;;26.77;8.18;;;4.30;99.90;;;;;;5075361;28;20146;-67
2024/01/06 07:13:07;;;;;;;27.60;9.20;;;4.20;99.90;;;;;;5076524;28;20021;-68
2024/01/06 07:15:33;;;;;;;27.98;9.75;;;4.20;99.90;;;;;;5076184;28;20028;-68
2024/01/06 07:17:58;;;;;;;29.05;8.80;;;4.30;99.90;;;;;;5076647;28;20016;-68
2024/01/06 07:20:24;;;;;;;28.42;9.27;;;4.20;99.90;;;;;;5076392;28;20020;-67
2024/01/06 07:22:49;;;;;;;28.92;9.95;;;4.20;99.90;;;;;;5076780;28;20028;-68
2024/01/06 07:25:15;;;;;;;30.42;10.38;;;4.20;99.90;;;;;;5077897;28;20055;-68
2024/01/06 07:27:40;;;;;;;30.13;10.23;;;4.20;99.90;;;;;;5077132;28;20040;-69
2024/01/06 07:30:08;;;;;;;25.55;9.73;;;4.30;99.90;;;;;;5071065;28;20024;-68
2024/01/06 07:32:34;;;;;;;27.70;10.38;;;4.20;99.90;;;;;;5070236;28;20033;-69
2024/01/06 07:34:59;;;;;;;31.23;11.35;;;4.20;99.90;;;;;;5075990;28;20098;-68
2024/01/06 07:37:25;;;;;;;32.17;10.27;;;4.10;99.90;;;;;;5076411;28;20037;-68
2024/01/06 07:39:51;;;;;;;30.20;9.82;;;4.00;99.90;;;;;;5074665;28;20070;-69
2024/01/06 07:42:17;;;;;;;32.58;11.25;;;4.10;99.90;;;;;;5076858;28;20036;-68
2024/01/06 07:44:44;;;;;;;27.08;9.82;;;4.00;99.90;;;;;;5071323;28;20028;-68
2024/01/06 07:47:10;;;;;;;28.88;10.00;;;4.10;99.90;;;;;;5072042;28;20036;-68
2024/01/06 07:49:35;;;;;;;29.38;10.25;;;4.10;99.90;;;;;;5075441;28;20581;-68
2024/01/06 07:52:02;;;;;;;31.05;10.75;;;4.00;99.90;;;;;;5077254;28;20016;-68
2024/01/06 07:54:27;;;;;;;29.15;10.05;;;4.00;99.90;;;;;;5080348;28;20416;-68
2024/01/06 07:56:53;;;;;;;34.83;10.70;;;4.00;99.90;;;;;;5079689;28;20020;-69
2024/01/06 07:59:19;;;;;;;30.50;10.93;;;4.10;99.90;;;;;;5071869;28;20507;-68
2024/01/06 08:01:44;;;;;;;32.05;10.88;;;4.10;99.90;;;;;;5071196;28;20052;-69
2024/01/06 08:04:10;;;;;;;33.67;11.40;;;4.10;99.90;;;;;;5073300;28;20024;-69
2024/01/06 08:06:36;;;;;;;30.40;10.77;;;4.00;99.90;;;;;;5078073;28;20039;-69
2024/01/06 08:09:01;;;;;;;32.33;10.95;;;4.00;99.90;;;;;;5075645;28;20068;-68
2024/01/06 08:11:27;;;;;;;35.58;10.95;;;4.00;99.90;;;;;;5072684;28;20052;-69
2024/01/06 08:13:53;;;;;;;27.48;9.15;;;3.90;99.90;;;;;;5078700;28;20452;-69
2024/01/06 08:16:19;;;;;;;34.13;12.30;;;3.90;99.90;;;;;;5076713;28;20024;-68
2024/01/06 08:18:45;;;;;;;33.75;11.80;;;4.00;99.90;;;;;;5081920;28;20020;-69
2024/01/06 08:21:11;;;;;;;37.70;12.15;;;4.00;99.90;;;;;;5079005;28;20012;-68
2024/01/06 08:23:37;;;;;;;34.83;12.38;;;4.00;99.90;;;;;;5075186;28;20026;-68
2024/01/06 08:26:03;;;;;;;31.83;10.90;;;4.10;99.90;;;;;;5075556;28;20510;-68
2024/01/06 08:28:29;;;;;;;36.13;12.45;;;4.00;99.90;;;;;;5066212;28;20531;-68
2024/01/06 08:30:55;;;;;;;37.15;12.75;;;4.00;99.90;;;;;;5075718;28;20022;-68
2024/01/06 08:33:21;;;;;;;40.63;12.73;;;4.00;99.90;;;;;;5075749;28;20077;-68
2024/01/06 08:35:47;;;;;;;34.72;11.82;;;4.00;99.90;;;;;;5073776;28;20032;-69
2024/01/06 08:38:12;;;;;;;38.20;12.13;;;4.00;99.90;;;;;;5074782;28;20028;-69
2024/01/06 08:40:38;;;;;;;41.85;13.38;;;3.90;99.90;;;;;;5076666;28;20032;-68
2024/01/06 08:43:04;;;;;;;34.45;12.20;;;3.80;99.90;;;;;;5081204;28;20029;-68
2024/01/06 08:45:29;;;;;;;35.78;11.23;;;3.80;99.90;;;;;;5070831;28;20032;-69
2024/01/06 08:47:56;;;;;;;26.92;10.27;;;3.70;99.90;;;;;;5079040;28;20069;-69
2024/01/06 08:50:22;;;;;;;36.60;10.95;;;3.70;99.90;;;;;;5073256;28;20024;-70
2024/01/06 08:52:48;;;;;;;37.60;12.20;;;3.70;99.90;;;;;;5080746;28;20027;-69
2024/01/06 08:55:13;;;;;;;48.00;13.90;;;3.60;99.90;;;;;;5078978;28;20020;-69
2024/01/06 08:57:39;;;;;;;41.05;11.10;;;3.50;99.90;;;;;;5079244;28;20341;-69
2024/01/06 09:00:05;;;;;;;44.00;12.52;;;3.60;99.90;;;;;;5083944;28;20413;-71
2024/01/06 09:02:31;;;;;;;38.53;11.05;;;3.60;99.90;;;;;;5077466;28;20040;-69
2024/01/06 09:04:57;;;;;;;37.65;9.95;;;3.50;99.90;;;;;;5078562;28;20411;-69
2024/01/06 09:07:22;;;;;;;41.08;12.73;;;3.50;99.90;;;;;;5078967;28;20032;-69
2024/01/06 09:09:48;;;;;;;35.58;9.98;;;3.50;99.90;;;;;;5072579;28;20024;-69
2024/01/06 09:12:13;;;;;;;36.85;10.35;;;3.50;99.90;;;;;;5080822;28;20527;-70
2024/01/06 09:14:40;;;;;;;28.00;8.27;;;3.50;99.90;;;;;;5081744;28;20020;-69
2024/01/06 09:17:05;;;;;;;26.13;9.23;;;3.50;99.90;;;;;;5073060;28;20486;-69
2024/01/06 09:19:31;;;;;;;24.58;8.27;;;3.60;99.90;;;;;;5086140;28;20024;-69
2024/01/06 09:21:57;;;;;;;22.08;7.90;;;3.60;99.90;;;;;;5077060;28;20555;-69
2024/01/06 09:24:22;;;;;;;25.77;8.77;;;3.60;99.90;;;;;;5073461;28;20498;-68
2024/01/06 09:26:50;;;;;;;24.77;8.27;;;3.60;99.90;;;;;;5073623;28;20112;-69
2024/01/06 09:29:16;;;;;;;21.85;7.85;;;3.50;99.90;;;;;;5071799;28;20108;-69
2024/01/06 09:31:41;;;;;;;24.30;7.80;;;3.60;99.90;;;;;;5069612;28;20154;-69
2024/01/06 09:34:10;;;;;;;24.85;8.85;;;3.60;99.90;;;;;;5074124;28;20032;-69
2024/01/06 09:36:35;;;;;;;30.50;8.45;;;3.60;99.90;;;;;;5078998;28;20023;-69
2024/01/06 09:39:01;;;;;;;24.00;7.72;;;3.60;99.90;;;;;;5084407;28;20630;-69
2024/01/06 09:41:27;;;;;;;24.15;8.10;;;3.60;99.90;;;;;;5076638;28;20494;-69
2024/01/06 09:43:53;;;;;;;26.77;7.75;;;3.50;99.90;;;;;;5071375;28;20418;-69
2024/01/06 09:46:26;;;;;;;21.92;6.38;;;3.50;99.90;;;;;;5072540;28;20055;-69
2024/01/06 09:48:53;;;;;;;14.07;5.13;;;3.50;99.90;;;;;;5074065;28;20034;-69
2024/01/06 09:51:19;;;;;;;16.65;6.47;;;3.40;99.90;;;;;;5077052;28;20020;-69
2024/01/06 09:53:56;;;;;;;14.70;4.93;;;3.50;99.90;;;;;;5078005;28;20386;-69
2024/01/06 09:56:25;;;;;;;16.88;5.82;;;3.50;99.90;;;;;;5073860;28;20020;-69
2024/01/06 09:58:51;;;;;;;14.85;5.90;;;3.60;99.90;;;;;;5079773;28;20467;-68
2024/01/06 10:01:20;;;;;;;18.88;6.93;;;3.60;99.90;;;;;;5076756;28;20125;-69
2024/01/06 10:03:46;;;;;;;15.18;6.05;;;3.60;99.90;;;;;;5081200;28;20020;-68
2024/01/06 10:06:15;;;;;;;16.73;5.05;;;3.60;99.90;;;;;;5082432;28;20108;-69
2024/01/06 10:08:59;;;;;;;14.27;5.05;;;3.50;99.90;;;;;;5077201;28;20020;-69
2024/01/06 10:11:26;;;;;;;15.82;5.75;;;3.60;99.90;;;;;;5082326;28;20466;-68
2024/01/06 10:13:53;;;;;;;14.65;5.72;;;3.60;99.90;;;;;;5073662;28;20017;-69
2024/01/06 10:16:20;;;;;;;13.63;5.20;;;3.50;99.90;;;;;;5068885;28;20020;-68
2024/01/06 10:18:46;;;;;;;18.08;5.53;;;3.60;99.90;;;;;;5070515;28;20016;-69
2024/01/06 10:21:13;;;;;;;15.38;4.78;;;3.50;99.90;;;;;;5076519;28;20079;-68
2024/01/06 10:23:39;;;;;;;16.25;4.38;;;3.60;99.90;;;;;;5073648;28;20021;-68
2024/01/06 10:26:04;;;;;;;14.45;5.15;;;3.50;99.90;;;;;;5074207;28;20028;-68
2024/01/06 10:28:30;;;;;;;11.88;4.45;;;3.50;99.90;;;;;;5081932;28;20020;-68
2024/01/06 10:30:57;;;;;;;15.68;5.63;;;3.50;99.90;;;;;;5073114;28;20104;-68
2024/01/06 10:33:24;;;;;;;14.52;5.10;;;3.50;99.90;;;;;;5077207;28;20111;-68
2024/01/06 10:35:50;;;;;;;16.35;6.00;;;3.50;99.90;;;;;;5079665;28;20032;-68
2024/01/06 10:38:17;;;;;;;18.42;5.80;;;3.50;99.90;;;;;;5073223;28;20116;-68
2024/01/06 10:40:59;;;;;;;22.50;8.18;;;3.60;99.90;;;;;;5077455;28;20047;-68
2024/01/06 10:43:34;;;;;;;19.80;7.45;;;3.50;99.90;;;;;;5076504;28;20069;-68
2024/01/06 10:46:04;;;;;;;22.70;8.63;;;3.40;99.90;;;;;;5078976;28;20676;-68
2024/01/06 10:48:33;;;;;;;27.88;8.05;;;3.30;99.90;;;;;;5081518;28;20109;-68
2024/01/06 10:50:59;;;;;;;28.67;9.55;;;3.30;99.90;;;;;;5076164;28;20035;-68
2024/01/06 10:53:26;;;;;;;25.52;9.07;;;3.30;99.90;;;;;;5068040;28;20028;-68
2024/01/06 10:55:52;;;;;;;32.67;10.27;;;3.20;99.90;;;;;;5077040;28;20525;-68
2024/01/06 10:58:19;;;;;;;29.52;9.98;;;3.20;99.90;;;;;;5072536;28;20501;-68
2024/01/06 11:00:45;;;;;;;32.70;9.93;;;3.20;99.90;;;;;;5079975;28;20036;-68
2024/01/06 11:03:13;;;;;;;31.73;9.88;;;3.20;99.90;;;;;;5078408;28;20032;-68
2024/01/06 11:05:40;;;;;;;36.00;11.13;;;3.10;99.90;;;;;;5076520;28;20085;-68
2024/01/06 11:08:07;;;;;;;29.67;9.18;;;3.10;99.90;;;;;;5064053;28;20032;-69
2024/01/06 11:10:36;;;;;;;30.08;10.07;;;3.20;99.90;;;;;;5077931;28;20538;-68
2024/01/06 11:13:13;;;;;;;27.35;9.13;;;3.10;99.90;;;;;;5079529;28;20028;-69
2024/01/06 11:15:40;;;;;;;31.58;9.80;;;3.20;99.90;;;;;;5068202;28;20432;-68
2024/01/06 11:18:06;;;;;;;34.47;11.85;;;3.20;99.90;;;;;;5074305;28;20017;-68
2024/01/06 11:20:31;;;;;;;31.35;10.02;;;3.10;99.90;;;;;;5069017;28;20040;-68
2024/01/06 11:23:19;;;;;;;35.50;11.13;;;3.10;99.90;;;;;;5079649;28;20059;-68
2024/01/06 11:25:45;;;;;;;34.50;11.60;;;;;;;;;;5067515;28;20104;-69
2024/01/06 11:28:12;;;;;;;31.85;10.07;;;3.10;99.90;;;;;;5069656;28;20067;-69
2024/01/06 11:30:39;;;;;;;29.00;9.75;;;3.20;99.90;;;;;;5071458;28;20028;-68
2024/01/06 11:33:04;;;;;;;25.77;8.35;;;3.10;99.90;;;;;;5065027;28;20475;-68
2024/01/06 11:35:30;;;;;;;27.55;8.98;;;3.10;99.90;;;;;;5077180;28;20031;-68
2024/01/06 11:38:00;;;;;;;27.17;9.63;;;3.00;99.90;;;;;;5075328;28;20038;-68
2024/01/06 11:40:36;;;;;;;25.35;8.40;;;3.00;99.90;;;;;;5081858;28;20020;-69
2024/01/06 11:43:09;;;;;;;32.15;10.23;;;3.10;99.90;;;;;;5081120;28;20039;-68
2024/01/06 11:45:37;;;;;;;28.25;10.57;;;3.10;99.90;;;;;;5069493;28;20033;-68
2024/01/06 11:48:05;;;;;;;35.80;11.30;;;3.10;99.90;;;;;;5076892;28;20016;-68
2024/01/06 11:50:33;;;;;;;34.47;11.98;;;3.00;99.90;;;;;;5074642;28;20020;-68
2024/01/06 11:52:59;;;;;;;41.78;14.02;;;2.90;99.90;;;;;;5072029;28;20074;-68
2024/01/06 11:55:31;;;;;;;37.75;11.95;;;2.90;99.90;;;;;;5077702;28;20107;-68
2024/01/06 11:58:01;;;;;;;31.10;9.27;;;2.80;99.90;;;;;;5073930;28;20035;-68
2024/01/06 12:00:27;;;;;;;31.52;9.55;;;2.80;99.90;;;;;;5075008;28;20044;-68
2024/01/06 12:03:00;;;;;;;27.20;8.88;;;2.70;99.90;;;;;;5077827;28;20089;-68
2024/01/06 12:05:27;;;;;;;31.20;11.35;;;2.70;99.90;;;;;;5073935;28;20116;-68
2024/01/06 12:08:01;;;;;;;35.22;11.07;;;2.70;99.90;;;;;;5076142;28;20035;-68
2024/01/06 12:10:32;;;;;;;31.05;10.45;;;2.70;99.90;;;;;;5072986;28;20031;-68
2024/01/06 12:13:02;;;;;;;33.40;11.52;;;2.70;99.90;;;;;;5065160;28;20115;-68
2024/01/06 12:15:30;;;;;;;28.48;10.23;;;2.80;99.90;;;;;;5067706;28;20097;-67
2024/01/06 12:17:56;;;;;;;31.52;10.40;;;2.80;99.90;;;;;;5077053;28;20028;-67
2024/01/06 12:20:23;;;;;;;28.23;8.40;;;2.90;99.90;;;;;;5070363;28;20042;-67
2024/01/06 12:22:49;;;;;;;39.25;12.02;;;;;;;;;;5063299;28;20469;-68
2024/01/06 12:25:15;;;;;;;35.30;11.13;;;3.00;99.90;;;;;;5067047;28;20099;-68
2024/01/06 12:27:45;;;;;;;44.20;13.00;;;3.00;99.90;;;;;;5073105;28;20112;-67
2024/01/06 12:30:18;;;;;;;42.00;12.95;;;3.00;99.90;;;;;;5072904;28;20422;-67
2024/01/06 12:32:54;;;;;;;49.92;15.48;;;2.90;99.90;;;;;;5072127;28;20449;-68
2024/01/06 12:35:21;;;;;;;43.03;13.75;;;2.80;99.90;;;;;;5075143;28;20032;-68
2024/01/06 12:37:47;;;;;;;46.72;13.88;;;2.80;99.90;;;;;;5076943;28;20039;-68
2024/01/06 12:40:16;;;;;;;54.55;15.23;;;2.80;99.90;;;;;;5077213;28;20087;-68